| Ora | Descriere | Temp | Se simte | Precipitatii | Umiditate | Vant |
|---|---|---|---|---|---|---|
| 00:00 | Senin | 12.8° | 12.5° | 0% | 62% | SW 7.2 KM/H |
| 01:00 | Senin | 12.3° | 11.8° | 0% | 63% | WSW 7.6 KM/H |
| 02:00 | Senin | 11.7° | 11.3° | 0% | 65% | W 6.8 KM/H |
| 03:00 | Senin | 11.2° | 10.9° | 0% | 68% | W 5.8 KM/H |
| 04:00 | Senin | 10.7° | 10.9° | 0% | 72% | WNW 4 KM/H |
| 05:00 | Senin | 10.2° | 10.2° | 0% | 75% | W 2.9 KM/H |
| 06:00 | Senin | 9.9° | 9.9° | 0% | 77% | W 1.4 KM/H |
| 07:00 | Senin | 10.6° | 10.6° | 0% | 77% | WSW 1.1 KM/H |
| 08:00 | Senin | 12.9° | 12.9° | 0% | 70% | WSW 1.8 KM/H |
| 09:00 | Senin | 15° | 15° | 0% | 64% | SW 1.8 KM/H |
| 10:00 | Senin | 17.2° | 17.2° | 0% | 59% | WSW 2.2 KM/H |
| 11:00 | Senin | 19.1° | 19.1° | 0% | 54% | SSW 0.4 KM/H |
| 12:00 | Senin | 20.9° | 20.9° | 0% | 49% | SE 3.6 KM/H |
| 13:00 | Senin | 22° | 24.3° | 0% | 45% | SE 5.8 KM/H |
| 14:00 | Senin | 22.9° | 24.4° | 0% | 43% | SE 7.6 KM/H |
| 15:00 | Senin | 23.3° | 24.5° | 0% | 41% | SE 8.3 KM/H |
| 16:00 | Senin | 23.7° | 24.6° | 0% | 40% | SE 8.3 KM/H |
| 17:00 | Senin | 23.8° | 24.7° | 0% | 40% | ESE 9.4 KM/H |
| 18:00 | Senin | 23.4° | 24.5° | 0% | 40% | ESE 11.9 KM/H |
| 19:00 | Senin | 22° | 24.4° | 0% | 50% | ESE 11.9 KM/H |
| 20:00 | Senin | 18.9° | 18.9° | 0% | 60% | ESE 13 KM/H |
| 21:00 | Senin | 16.7° | 16.7° | 0% | 63% | SE 13.3 KM/H |
| 22:00 | Senin | 15.7° | 15.7° | 0% | 63% | SE 13 KM/H |
| 23:00 | 15.1° | 15.1° | 0% | 64% | SE 12.6 KM/H |